This is the latest recevied weather packets stored in our database for station/object DC4THF-13. If no packets are shown the sender has not sent any weather packets the latest 10 day(s).
| Time | Temp. | Humidity | Pressure | Rain* | Wind** | Luminosity | Snow |
|---|---|---|---|---|---|---|---|
| 1787593968 | 18.33° C | 53% | 1014.4 hPa | 0 mm | - | - | - |
| 1787593366 | 19.44° C | 51% | 1014.3 hPa | 0 mm | - | - | - |
| 1787592763 | 20° C | 50% | 1014 hPa | 0 mm | - | - | - |
| 1787592159 | 20.56° C | 49% | 1014 hPa | 0 mm | - | - | - |
| 1787591557 | 21.11° C | 46% | 1013.7 hPa | 0 mm | - | - | - |
| 1787590954 | 22.78° C | 41% | 1013.2 hPa | 0 mm | - | - | - |
| 1787590352 | 25° C | 39% | 1013.4 hPa | 0 mm | - | - | - |
| 1787589748 | 25° C | 38% | 1013.4 hPa | 0 mm | - | - | - |
| 1787589145 | 25° C | 37% | 1014 hPa | 0 mm | - | - | - |
| 1787588543 | 25° C | 37% | 1014.4 hPa | 0 mm | - | - | - |
| 1787587939 | 25° C | 36% | 1014.5 hPa | 0 mm | - | - | - |
| 1787587336 | 25.56° C | 37% | 1014.7 hPa | 0 mm | - | - | - |
| 1787586733 | 25° C | 40% | 1014.8 hPa | 0 mm | - | - | - |
| 1787586190 | 25.56° C | 38% | 1014.9 hPa | 0 mm | - | - | - |
| 1787585587 | 25.56° C | 39% | 1015 hPa | 0 mm | - | - | - |
| 1787584984 | 25.56° C | 38% | 1015.1 hPa | 0 mm | - | - | - |
| 1787584381 | 25° C | 41% | 1015.1 hPa | 0 mm | - | - | - |
| 1787583778 | 23.89° C | 41% | 1015.3 hPa | 0 mm | - | - | - |
| 1787583175 | 23.89° C | 41% | 1015.3 hPa | 0 mm | - | - | - |
| 1787582572 | 25° C | 40% | 1015.4 hPa | 0 mm | - | - | - |
| 1787581969 | 25.56° C | 40% | 1015.5 hPa | 0 mm | - | - | - |
| 1787581366 | 24.44° C | 41% | 1015.6 hPa | 0 mm | - | - | - |
| 1787580763 | 22.22° C | 49% | 1015.6 hPa | 0 mm | - | - | - |
| 1787580160 | 21.11° C | 50% | 1015.7 hPa | 0 mm | - | - | - |
| 1787579556 | 22.22° C | 47% | 1015.7 hPa | 0 mm | - | - | - |
* Rain latest hour (hover to see other rain measurements)
** Current wind speed in m/s (hover to see current wind gust speed)